sensor_id;sensor_type;location;lat;lon;timestamp;P1;durP1;ratioP1;P2;durP2;ratioP2
29732;SDS011;16643;43.158;25.302;2023-07-20T00:01:40;12.52;;;3.38;;
29732;SDS011;16643;43.158;25.302;2023-07-20T00:04:10;14.55;;;3.80;;
29732;SDS011;16643;43.158;25.302;2023-07-20T00:06:36;13.18;;;3.15;;
29732;SDS011;16643;43.158;25.302;2023-07-20T00:09:08;11.35;;;2.97;;
29732;SDS011;16643;43.158;25.302;2023-07-20T00:11:35;11.23;;;3.03;;
29732;SDS011;16643;43.158;25.302;2023-07-20T00:14:05;9.10;;;3.28;;
29732;SDS011;16643;43.158;25.302;2023-07-20T00:16:31;10.27;;;3.63;;
29732;SDS011;16643;43.158;25.302;2023-07-20T00:18:57;15.15;;;3.47;;
29732;SDS011;16643;43.158;25.302;2023-07-20T00:21:23;14.02;;;3.20;;
29732;SDS011;16643;43.158;25.302;2023-07-20T00:23:49;12.32;;;3.53;;
29732;SDS011;16643;43.158;25.302;2023-07-20T00:26:15;11.75;;;3.35;;
29732;SDS011;16643;43.158;25.302;2023-07-20T00:28:40;16.17;;;4.13;;
29732;SDS011;16643;43.158;25.302;2023-07-20T00:31:06;15.05;;;3.22;;
29732;SDS011;16643;43.158;25.302;2023-07-20T00:33:31;7.38;;;2.65;;
29732;SDS011;16643;43.158;25.302;2023-07-20T00:35:57;18.88;;;2.78;;
29732;SDS011;16643;43.158;25.302;2023-07-20T00:38:23;6.95;;;2.80;;
29732;SDS011;16643;43.158;25.302;2023-07-20T00:40:49;8.82;;;2.50;;
29732;SDS011;16643;43.158;25.302;2023-07-20T00:43:14;10.80;;;2.60;;
29732;SDS011;16643;43.158;25.302;2023-07-20T00:45:40;9.60;;;3.78;;
29732;SDS011;16643;43.158;25.302;2023-07-20T00:48:06;5.13;;;1.98;;
29732;SDS011;16643;43.158;25.302;2023-07-20T00:50:33;12.93;;;2.80;;
29732;SDS011;16643;43.158;25.302;2023-07-20T00:53:00;11.73;;;3.15;;
29732;SDS011;16643;43.158;25.302;2023-07-20T00:55:30;8.75;;;2.40;;
29732;SDS011;16643;43.158;25.302;2023-07-20T00:57:56;9.63;;;2.45;;
29732;SDS011;16643;43.158;25.302;2023-07-20T01:00:23;7.82;;;2.63;;
29732;SDS011;16643;43.158;25.302;2023-07-20T01:02:48;7.88;;;2.67;;
29732;SDS011;16643;43.158;25.302;2023-07-20T01:05:14;12.98;;;3.55;;
29732;SDS011;16643;43.158;25.302;2023-07-20T01:07:46;10.32;;;3.33;;
29732;SDS011;16643;43.158;25.302;2023-07-20T01:12:48;10.13;;;2.95;;
29732;SDS011;16643;43.158;25.302;2023-07-20T01:15:18;9.77;;;3.08;;
29732;SDS011;16643;43.158;25.302;2023-07-20T01:17:44;11.77;;;3.13;;
29732;SDS011;16643;43.158;25.302;2023-07-20T01:20:10;9.20;;;3.70;;
29732;SDS011;16643;43.158;25.302;2023-07-20T01:22:48;8.75;;;3.83;;
29732;SDS011;16643;43.158;25.302;2023-07-20T01:31:23;11.30;;;3.67;;
29732;SDS011;16643;43.158;25.302;2023-07-20T01:33:50;13.15;;;3.95;;
29732;SDS011;16643;43.158;25.302;2023-07-20T01:36:18;12.95;;;3.13;;
29732;SDS011;16643;43.158;25.302;2023-07-20T01:41:12;10.48;;;3.90;;
29732;SDS011;16643;43.158;25.302;2023-07-20T01:43:38;9.20;;;4.05;;
29732;SDS011;16643;43.158;25.302;2023-07-20T01:46:04;17.15;;;3.80;;
29732;SDS011;16643;43.158;25.302;2023-07-20T01:48:29;7.20;;;3.30;;
29732;SDS011;16643;43.158;25.302;2023-07-20T01:50:55;8.65;;;3.33;;
29732;SDS011;16643;43.158;25.302;2023-07-20T01:53:21;11.98;;;3.90;;
29732;SDS011;16643;43.158;25.302;2023-07-20T01:55:46;7.07;;;3.53;;
29732;SDS011;16643;43.158;25.302;2023-07-20T01:58:12;10.13;;;3.92;;
29732;SDS011;16643;43.158;25.302;2023-07-20T02:00:37;11.35;;;3.70;;
29732;SDS011;16643;43.158;25.302;2023-07-20T02:03:04;16.08;;;4.32;;
29732;SDS011;16643;43.158;25.302;2023-07-20T02:05:29;13.25;;;4.43;;
29732;SDS011;16643;43.158;25.302;2023-07-20T02:07:55;9.75;;;4.15;;
29732;SDS011;16643;43.158;25.302;2023-07-20T02:10:21;10.07;;;3.70;;
29732;SDS011;16643;43.158;25.302;2023-07-20T02:12:46;11.13;;;4.28;;
29732;SDS011;16643;43.158;25.302;2023-07-20T02:15:13;9.75;;;3.88;;
29732;SDS011;16643;43.158;25.302;2023-07-20T02:17:41;10.82;;;4.35;;
29732;SDS011;16643;43.158;25.302;2023-07-20T02:20:07;8.18;;;4.25;;
29732;SDS011;16643;43.158;25.302;2023-07-20T02:22:35;8.48;;;4.43;;
29732;SDS011;16643;43.158;25.302;2023-07-20T02:25:03;11.13;;;4.07;;
29732;SDS011;16643;43.158;25.302;2023-07-20T02:27:29;13.65;;;4.18;;
29732;SDS011;16643;43.158;25.302;2023-07-20T02:29:55;10.45;;;3.40;;
29732;SDS011;16643;43.158;25.302;2023-07-20T02:32:21;7.82;;;3.10;;
29732;SDS011;16643;43.158;25.302;2023-07-20T02:34:47;11.73;;;3.53;;
29732;SDS011;16643;43.158;25.302;2023-07-20T02:37:12;9.85;;;3.33;;
29732;SDS011;16643;43.158;25.302;2023-07-20T02:39:38;8.02;;;3.60;;
29732;SDS011;16643;43.158;25.302;2023-07-20T02:42:05;12.73;;;3.45;;
29732;SDS011;16643;43.158;25.302;2023-07-20T02:44:31;13.82;;;4.50;;
29732;SDS011;16643;43.158;25.302;2023-07-20T02:46:56;7.60;;;3.53;;
29732;SDS011;16643;43.158;25.302;2023-07-20T02:49:22;9.55;;;3.40;;
29732;SDS011;16643;43.158;25.302;2023-07-20T02:51:48;10.82;;;3.53;;
29732;SDS011;16643;43.158;25.302;2023-07-20T02:54:13;12.10;;;3.70;;
29732;SDS011;16643;43.158;25.302;2023-07-20T02:56:40;11.48;;;4.03;;
29732;SDS011;16643;43.158;25.302;2023-07-20T02:59:05;12.63;;;3.90;;
29732;SDS011;16643;43.158;25.302;2023-07-20T03:01:31;13.68;;;4.25;;
29732;SDS011;16643;43.158;25.302;2023-07-20T03:03:57;10.13;;;3.55;;
29732;SDS011;16643;43.158;25.302;2023-07-20T03:06:22;10.60;;;4.00;;
29732;SDS011;16643;43.158;25.302;2023-07-20T03:08:48;9.80;;;3.88;;
29732;SDS011;16643;43.158;25.302;2023-07-20T03:11:17;19.45;;;4.05;;
29732;SDS011;16643;43.158;25.302;2023-07-20T03:13:44;14.40;;;4.43;;
29732;SDS011;16643;43.158;25.302;2023-07-20T03:16:11;9.15;;;3.58;;
29732;SDS011;16643;43.158;25.302;2023-07-20T03:18:38;6.77;;;3.27;;
29732;SDS011;16643;43.158;25.302;2023-07-20T03:21:04;6.97;;;3.30;;
29732;SDS011;16643;43.158;25.302;2023-07-20T03:23:31;9.45;;;3.53;;
29732;SDS011;16643;43.158;25.302;2023-07-20T03:25:57;9.65;;;3.80;;
29732;SDS011;16643;43.158;25.302;2023-07-20T03:28:23;10.02;;;4.07;;
29732;SDS011;16643;43.158;25.302;2023-07-20T03:30:55;12.32;;;3.97;;
29732;SDS011;16643;43.158;25.302;2023-07-20T03:33:22;14.52;;;4.35;;
29732;SDS011;16643;43.158;25.302;2023-07-20T03:35:48;9.05;;;3.80;;
29732;SDS011;16643;43.158;25.302;2023-07-20T03:38:13;10.82;;;3.92;;
29732;SDS011;16643;43.158;25.302;2023-07-20T03:40:39;12.15;;;4.45;;
29732;SDS011;16643;43.158;25.302;2023-07-20T03:43:17;7.72;;;3.85;;
29732;SDS011;16643;43.158;25.302;2023-07-20T03:45:43;10.57;;;4.25;;
29732;SDS011;16643;43.158;25.302;2023-07-20T03:48:10;11.77;;;3.87;;
29732;SDS011;16643;43.158;25.302;2023-07-20T03:50:37;11.82;;;4.07;;
29732;SDS011;16643;43.158;25.302;2023-07-20T03:53:03;9.65;;;4.13;;
29732;SDS011;16643;43.158;25.302;2023-07-20T03:55:29;12.57;;;3.50;;
29732;SDS011;16643;43.158;25.302;2023-07-20T03:57:55;9.88;;;3.90;;
29732;SDS011;16643;43.158;25.302;2023-07-20T04:00:21;11.10;;;3.45;;
29732;SDS011;16643;43.158;25.302;2023-07-20T04:02:47;12.85;;;4.07;;
29732;SDS011;16643;43.158;25.302;2023-07-20T04:05:12;11.98;;;3.60;;
29732;SDS011;16643;43.158;25.302;2023-07-20T04:07:38;9.82;;;3.80;;
29732;SDS011;16643;43.158;25.302;2023-07-20T04:10:04;10.30;;;4.38;;
29732;SDS011;16643;43.158;25.302;2023-07-20T04:12:30;9.75;;;3.33;;
29732;SDS011;16643;43.158;25.302;2023-07-20T04:14:55;7.80;;;3.35;;
29732;SDS011;16643;43.158;25.302;2023-07-20T04:17:21;8.90;;;2.88;;
29732;SDS011;16643;43.158;25.302;2023-07-20T04:19:46;6.88;;;2.85;;
29732;SDS011;16643;43.158;25.302;2023-07-20T04:22:12;8.40;;;2.67;;
29732;SDS011;16643;43.158;25.302;2023-07-20T04:24:41;9.77;;;2.60;;
29732;SDS011;16643;43.158;25.302;2023-07-20T04:27:07;7.88;;;2.22;;
29732;SDS011;16643;43.158;25.302;2023-07-20T04:29:33;6.28;;;2.90;;
29732;SDS011;16643;43.158;25.302;2023-07-20T04:31:59;9.73;;;2.75;;
29732;SDS011;16643;43.158;25.302;2023-07-20T04:34:24;6.03;;;2.30;;
29732;SDS011;16643;43.158;25.302;2023-07-20T04:36:50;7.85;;;2.20;;
29732;SDS011;16643;43.158;25.302;2023-07-20T04:39:16;9.77;;;2.60;;
29732;SDS011;16643;43.158;25.302;2023-07-20T04:41:42;3.95;;;1.88;;
29732;SDS011;16643;43.158;25.302;2023-07-20T04:44:07;5.88;;;1.77;;
29732;SDS011;16643;43.158;25.302;2023-07-20T04:46:33;4.88;;;2.03;;
29732;SDS011;16643;43.158;25.302;2023-07-20T04:48:59;8.88;;;2.05;;
29732;SDS011;16643;43.158;25.302;2023-07-20T04:51:25;8.35;;;2.40;;
29732;SDS011;16643;43.158;25.302;2023-07-20T04:53:50;7.55;;;2.88;;
29732;SDS011;16643;43.158;25.302;2023-07-20T04:56:16;5.70;;;2.03;;
29732;SDS011;16643;43.158;25.302;2023-07-20T04:58:42;9.13;;;2.85;;
29732;SDS011;16643;43.158;25.302;2023-07-20T05:01:08;5.85;;;2.40;;
29732;SDS011;16643;43.158;25.302;2023-07-20T05:03:33;6.28;;;2.65;;
29732;SDS011;16643;43.158;25.302;2023-07-20T05:05:59;5.25;;;2.92;;
29732;SDS011;16643;43.158;25.302;2023-07-20T05:08:25;7.93;;;2.20;;
29732;SDS011;16643;43.158;25.302;2023-07-20T05:10:50;7.18;;;2.55;;
29732;SDS011;16643;43.158;25.302;2023-07-20T05:13:16;7.15;;;2.50;;
29732;SDS011;16643;43.158;25.302;2023-07-20T05:15:42;9.00;;;2.30;;
29732;SDS011;16643;43.158;25.302;2023-07-20T05:18:08;10.02;;;3.00;;
29732;SDS011;16643;43.158;25.302;2023-07-20T05:20:34;8.32;;;3.17;;
29732;SDS011;16643;43.158;25.302;2023-07-20T05:23:00;7.20;;;2.72;;
29732;SDS011;16643;43.158;25.302;2023-07-20T05:25:26;8.10;;;2.55;;
29732;SDS011;16643;43.158;25.302;2023-07-20T05:27:52;8.35;;;2.55;;
29732;SDS011;16643;43.158;25.302;2023-07-20T05:30:17;7.15;;;2.97;;
29732;SDS011;16643;43.158;25.302;2023-07-20T05:32:44;7.13;;;2.63;;
29732;SDS011;16643;43.158;25.302;2023-07-20T05:35:13;6.55;;;2.67;;
29732;SDS011;16643;43.158;25.302;2023-07-20T05:37:39;8.82;;;3.35;;
29732;SDS011;16643;43.158;25.302;2023-07-20T05:40:05;9.77;;;2.95;;
29732;SDS011;16643;43.158;25.302;2023-07-20T05:42:33;8.10;;;2.97;;
29732;SDS011;16643;43.158;25.302;2023-07-20T05:44:58;8.27;;;3.53;;
29732;SDS011;16643;43.158;25.302;2023-07-20T05:47:24;11.35;;;3.28;;
29732;SDS011;16643;43.158;25.302;2023-07-20T05:49:50;8.60;;;2.65;;
29732;SDS011;16643;43.158;25.302;2023-07-20T05:52:15;11.50;;;2.92;;
29732;SDS011;16643;43.158;25.302;2023-07-20T05:54:41;8.90;;;3.08;;
29732;SDS011;16643;43.158;25.302;2023-07-20T05:57:07;8.25;;;3.22;;
29732;SDS011;16643;43.158;25.302;2023-07-20T05:59:33;6.47;;;2.50;;
29732;SDS011;16643;43.158;25.302;2023-07-20T06:01:58;9.63;;;3.10;;
29732;SDS011;16643;43.158;25.302;2023-07-20T06:04:24;7.03;;;2.67;;
29732;SDS011;16643;43.158;25.302;2023-07-20T06:06:50;7.57;;;2.75;;
29732;SDS011;16643;43.158;25.302;2023-07-20T06:09:15;8.20;;;2.85;;
29732;SDS011;16643;43.158;25.302;2023-07-20T06:11:41;7.15;;;3.33;;
29732;SDS011;16643;43.158;25.302;2023-07-20T06:14:07;11.02;;;3.08;;
29732;SDS011;16643;43.158;25.302;2023-07-20T06:16:32;11.25;;;3.53;;
29732;SDS011;16643;43.158;25.302;2023-07-20T06:18:59;10.30;;;2.67;;
29732;SDS011;16643;43.158;25.302;2023-07-20T06:21:25;8.23;;;3.53;;
29732;SDS011;16643;43.158;25.302;2023-07-20T06:23:51;6.15;;;3.08;;
29732;SDS011;16643;43.158;25.302;2023-07-20T06:26:17;10.00;;;3.60;;
29732;SDS011;16643;43.158;25.302;2023-07-20T06:28:42;7.43;;;3.28;;
29732;SDS011;16643;43.158;25.302;2023-07-20T06:31:08;6.72;;;3.22;;
29732;SDS011;16643;43.158;25.302;2023-07-20T06:33:34;8.50;;;3.10;;
29732;SDS011;16643;43.158;25.302;2023-07-20T06:36:02;9.65;;;3.38;;
29732;SDS011;16643;43.158;25.302;2023-07-20T06:38:28;5.90;;;3.47;;
29732;SDS011;16643;43.158;25.302;2023-07-20T06:40:54;6.25;;;2.53;;
29732;SDS011;16643;43.158;25.302;2023-07-20T06:43:20;8.73;;;2.80;;
29732;SDS011;16643;43.158;25.302;2023-07-20T06:45:50;9.07;;;3.53;;
29732;SDS011;16643;43.158;25.302;2023-07-20T06:48:17;8.20;;;3.28;;
29732;SDS011;16643;43.158;25.302;2023-07-20T06:50:43;5.75;;;2.25;;
29732;SDS011;16643;43.158;25.302;2023-07-20T06:53:08;4.40;;;2.20;;
29732;SDS011;16643;43.158;25.302;2023-07-20T06:55:34;7.50;;;3.03;;
29732;SDS011;16643;43.158;25.302;2023-07-20T06:58:00;5.50;;;2.20;;
29732;SDS011;16643;43.158;25.302;2023-07-20T07:00:25;6.03;;;2.25;;
29732;SDS011;16643;43.158;25.302;2023-07-20T07:02:51;6.93;;;2.47;;
29732;SDS011;16643;43.158;25.302;2023-07-20T07:05:17;4.93;;;2.08;;
29732;SDS011;16643;43.158;25.302;2023-07-20T07:07:43;5.28;;;2.00;;
29732;SDS011;16643;43.158;25.302;2023-07-20T07:10:09;5.07;;;2.63;;
29732;SDS011;16643;43.158;25.302;2023-07-20T07:12:34;4.05;;;1.83;;
29732;SDS011;16643;43.158;25.302;2023-07-20T07:15:01;3.50;;;1.88;;
29732;SDS011;16643;43.158;25.302;2023-07-20T07:17:27;4.25;;;1.98;;
29732;SDS011;16643;43.158;25.302;2023-07-20T07:19:53;5.25;;;2.20;;
29732;SDS011;16643;43.158;25.302;2023-07-20T07:22:20;4.97;;;1.80;;
29732;SDS011;16643;43.158;25.302;2023-07-20T07:24:46;4.80;;;2.08;;
29732;SDS011;16643;43.158;25.302;2023-07-20T07:27:12;5.55;;;1.83;;
29732;SDS011;16643;43.158;25.302;2023-07-20T07:29:41;5.32;;;2.53;;
29732;SDS011;16643;43.158;25.302;2023-07-20T07:32:09;5.55;;;1.92;;
29732;SDS011;16643;43.158;25.302;2023-07-20T07:34:35;2.90;;;1.77;;
29732;SDS011;16643;43.158;25.302;2023-07-20T07:37:01;4.00;;;2.33;;
29732;SDS011;16643;43.158;25.302;2023-07-20T07:39:26;2.92;;;2.00;;
29732;SDS011;16643;43.158;25.302;2023-07-20T07:41:55;5.55;;;2.25;;
29732;SDS011;16643;43.158;25.302;2023-07-20T07:44:21;5.93;;;2.20;;
29732;SDS011;16643;43.158;25.302;2023-07-20T07:46:46;4.55;;;2.33;;
29732;SDS011;16643;43.158;25.302;2023-07-20T07:49:12;4.40;;;2.22;;
29732;SDS011;16643;43.158;25.302;2023-07-20T07:51:38;4.22;;;2.00;;
29732;SDS011;16643;43.158;25.302;2023-07-20T07:54:03;3.90;;;2.10;;
29732;SDS011;16643;43.158;25.302;2023-07-20T07:56:29;3.15;;;2.22;;
29732;SDS011;16643;43.158;25.302;2023-07-20T07:58:55;11.05;;;2.92;;
29732;SDS011;16643;43.158;25.302;2023-07-20T08:01:21;4.13;;;2.42;;
29732;SDS011;16643;43.158;25.302;2023-07-20T08:03:47;6.18;;;2.50;;
29732;SDS011;16643;43.158;25.302;2023-07-20T08:06:13;5.63;;;2.38;;
29732;SDS011;16643;43.158;25.302;2023-07-20T08:08:39;3.83;;;2.72;;
29732;SDS011;16643;43.158;25.302;2023-07-20T08:11:05;5.90;;;2.28;;
29732;SDS011;16643;43.158;25.302;2023-07-20T08:13:30;5.47;;;2.67;;
29732;SDS011;16643;43.158;25.302;2023-07-20T08:15:57;11.57;;;2.60;;
29732;SDS011;16643;43.158;25.302;2023-07-20T08:18:23;4.88;;;2.55;;
29732;SDS011;16643;43.158;25.302;2023-07-20T08:20:48;4.90;;;2.75;;
29732;SDS011;16643;43.158;25.302;2023-07-20T08:23:14;5.28;;;2.33;;
29732;SDS011;16643;43.158;25.302;2023-07-20T08:25:40;4.40;;;2.65;;
29732;SDS011;16643;43.158;25.302;2023-07-20T08:28:17;4.57;;;2.30;;
29732;SDS011;16643;43.158;25.302;2023-07-20T08:30:44;5.28;;;2.53;;
29732;SDS011;16643;43.158;25.302;2023-07-20T08:38:03;5.28;;;3.05;;
29732;SDS011;16643;43.158;25.302;2023-07-20T08:40:33;3.88;;;2.50;;
29732;SDS011;16643;43.158;25.302;2023-07-20T08:43:00;5.00;;;3.05;;
29732;SDS011;16643;43.158;25.302;2023-07-20T08:45:26;8.32;;;2.63;;
29732;SDS011;16643;43.158;25.302;2023-07-20T08:47:58;7.03;;;2.70;;
29732;SDS011;16643;43.158;25.302;2023-07-20T08:50:25;4.72;;;2.72;;
29732;SDS011;16643;43.158;25.302;2023-07-20T08:52:52;5.75;;;2.80;;
29732;SDS011;16643;43.158;25.302;2023-07-20T08:55:19;4.57;;;2.60;;
29732;SDS011;16643;43.158;25.302;2023-07-20T08:57:48;5.90;;;3.40;;
29732;SDS011;16643;43.158;25.302;2023-07-20T09:00:16;4.60;;;2.90;;
29732;SDS011;16643;43.158;25.302;2023-07-20T09:02:45;5.85;;;3.00;;
29732;SDS011;16643;43.158;25.302;2023-07-20T09:05:11;10.15;;;3.80;;
29732;SDS011;16643;43.158;25.302;2023-07-20T09:07:41;4.90;;;2.70;;
29732;SDS011;16643;43.158;25.302;2023-07-20T09:10:07;6.75;;;2.85;;
29732;SDS011;16643;43.158;25.302;2023-07-20T09:12:40;10.13;;;2.83;;
29732;SDS011;16643;43.158;25.302;2023-07-20T09:15:07;6.15;;;3.03;;
29732;SDS011;16643;43.158;25.302;2023-07-20T09:17:34;6.50;;;2.88;;
29732;SDS011;16643;43.158;25.302;2023-07-20T09:20:04;6.70;;;3.08;;
29732;SDS011;16643;43.158;25.302;2023-07-20T09:22:36;4.82;;;3.03;;
29732;SDS011;16643;43.158;25.302;2023-07-20T09:25:06;4.90;;;3.20;;
29732;SDS011;16643;43.158;25.302;2023-07-20T09:27:39;8.82;;;3.05;;
29732;SDS011;16643;43.158;25.302;2023-07-20T09:30:06;4.60;;;2.80;;
29732;SDS011;16643;43.158;25.302;2023-07-20T09:35:18;6.53;;;3.47;;
29732;SDS011;16643;43.158;25.302;2023-07-20T09:40:19;4.95;;;3.42;;
29732;SDS011;16643;43.158;25.302;2023-07-20T09:42:45;5.53;;;3.40;;
29732;SDS011;16643;43.158;25.302;2023-07-20T09:45:12;7.17;;;3.33;;
29732;SDS011;16643;43.158;25.302;2023-07-20T09:47:38;7.53;;;4.03;;
29732;SDS011;16643;43.158;25.302;2023-07-20T09:50:05;5.95;;;3.30;;
29732;SDS011;16643;43.158;25.302;2023-07-20T09:52:39;11.45;;;4.85;;
29732;SDS011;16643;43.158;25.302;2023-07-20T09:55:08;8.25;;;4.10;;
29732;SDS011;16643;43.158;25.302;2023-07-20T09:57:34;8.10;;;3.55;;
29732;SDS011;16643;43.158;25.302;2023-07-20T10:00:01;9.05;;;3.67;;
29732;SDS011;16643;43.158;25.302;2023-07-20T10:02:33;8.13;;;4.13;;
29732;SDS011;16643;43.158;25.302;2023-07-20T10:05:03;8.32;;;3.10;;
29732;SDS011;16643;43.158;25.302;2023-07-20T10:07:29;9.13;;;3.70;;
29732;SDS011;16643;43.158;25.302;2023-07-20T10:09:56;6.03;;;3.42;;
29732;SDS011;16643;43.158;25.302;2023-07-20T10:12:26;7.18;;;3.97;;
29732;SDS011;16643;43.158;25.302;2023-07-20T10:15:10;7.68;;;4.03;;
29732;SDS011;16643;43.158;25.302;2023-07-20T10:17:40;7.22;;;3.42;;
29732;SDS011;16643;43.158;25.302;2023-07-20T10:20:16;8.77;;;4.25;;
29732;SDS011;16643;43.158;25.302;2023-07-20T10:22:44;9.40;;;4.53;;
29732;SDS011;16643;43.158;25.302;2023-07-20T10:25:12;8.93;;;3.97;;
29732;SDS011;16643;43.158;25.302;2023-07-20T10:27:39;12.00;;;3.88;;
29732;SDS011;16643;43.158;25.302;2023-07-20T10:30:05;8.43;;;3.80;;
29732;SDS011;16643;43.158;25.302;2023-07-20T10:32:31;12.18;;;4.15;;
29732;SDS011;16643;43.158;25.302;2023-07-20T10:34:57;6.68;;;3.80;;
29732;SDS011;16643;43.158;25.302;2023-07-20T10:43:01;7.03;;;3.55;;
29732;SDS011;16643;43.158;25.302;2023-07-20T10:48:21;6.15;;;3.90;;
29732;SDS011;16643;43.158;25.302;2023-07-20T10:53:44;5.88;;;3.78;;
29732;SDS011;16643;43.158;25.302;2023-07-20T10:56:13;8.68;;;3.83;;
29732;SDS011;16643;43.158;25.302;2023-07-20T10:58:40;6.13;;;3.03;;
29732;SDS011;16643;43.158;25.302;2023-07-20T11:01:07;9.20;;;4.05;;
29732;SDS011;16643;43.158;25.302;2023-07-20T11:11:38;6.38;;;3.75;;
29732;SDS011;16643;43.158;25.302;2023-07-20T11:14:05;5.13;;;3.50;;
29732;SDS011;16643;43.158;25.302;2023-07-20T11:19:00;4.97;;;3.80;;
29732;SDS011;16643;43.158;25.302;2023-07-20T11:21:26;7.40;;;3.55;;
29732;SDS011;16643;43.158;25.302;2023-07-20T11:23:52;7.72;;;3.53;;
29732;SDS011;16643;43.158;25.302;2023-07-20T11:26:18;4.43;;;3.43;;
29732;SDS011;16643;43.158;25.302;2023-07-20T11:28:50;5.38;;;3.60;;
29732;SDS011;16643;43.158;25.302;2023-07-20T11:31:20;4.85;;;3.22;;
29732;SDS011;16643;43.158;25.302;2023-07-20T11:33:46;5.07;;;3.15;;
29732;SDS011;16643;43.158;25.302;2023-07-20T11:36:12;9.05;;;3.35;;
29732;SDS011;16643;43.158;25.302;2023-07-20T11:38:41;6.55;;;3.05;;
29732;SDS011;16643;43.158;25.302;2023-07-20T11:41:10;4.32;;;2.78;;
29732;SDS011;16643;43.158;25.302;2023-07-20T11:43:35;5.75;;;2.80;;
29732;SDS011;16643;43.158;25.302;2023-07-20T11:46:04;9.70;;;3.33;;
29732;SDS011;16643;43.158;25.302;2023-07-20T11:48:30;5.88;;;2.83;;
29732;SDS011;16643;43.158;25.302;2023-07-20T11:50:56;3.83;;;2.20;;
29732;SDS011;16643;43.158;25.302;2023-07-20T11:53:22;4.20;;;2.33;;
29732;SDS011;16643;43.158;25.302;2023-07-20T11:55:51;7.40;;;2.67;;
29732;SDS011;16643;43.158;25.302;2023-07-20T11:58:17;7.18;;;2.97;;
29732;SDS011;16643;43.158;25.302;2023-07-20T12:00:43;3.92;;;2.35;;
29732;SDS011;16643;43.158;25.302;2023-07-20T12:03:10;5.15;;;3.35;;
29732;SDS011;16643;43.158;25.302;2023-07-20T12:08:05;5.03;;;2.38;;
29732;SDS011;16643;43.158;25.302;2023-07-20T12:10:31;4.93;;;2.63;;
29732;SDS011;16643;43.158;25.302;2023-07-20T12:13:03;5.05;;;2.88;;
29732;SDS011;16643;43.158;25.302;2023-07-20T12:15:29;5.57;;;2.72;;
29732;SDS011;16643;43.158;25.302;2023-07-20T12:17:56;7.82;;;3.00;;
29732;SDS011;16643;43.158;25.302;2023-07-20T12:20:30;5.85;;;3.35;;
29732;SDS011;16643;43.158;25.302;2023-07-20T12:22:59;6.22;;;3.10;;
29732;SDS011;16643;43.158;25.302;2023-07-20T12:25:33;6.88;;;2.35;;
29732;SDS011;16643;43.158;25.302;2023-07-20T12:28:01;4.72;;;2.60;;
29732;SDS011;16643;43.158;25.302;2023-07-20T12:30:29;5.18;;;2.33;;
29732;SDS011;16643;43.158;25.302;2023-07-20T12:32:55;5.10;;;2.45;;
29732;SDS011;16643;43.158;25.302;2023-07-20T12:35:20;4.65;;;2.42;;
29732;SDS011;16643;43.158;25.302;2023-07-20T12:37:46;3.80;;;2.45;;
29732;SDS011;16643;43.158;25.302;2023-07-20T12:40:14;6.20;;;2.50;;
29732;SDS011;16643;43.158;25.302;2023-07-20T12:42:39;4.32;;;2.33;;
29732;SDS011;16643;43.158;25.302;2023-07-20T12:45:05;5.47;;;2.88;;
29732;SDS011;16643;43.158;25.302;2023-07-20T12:47:31;4.70;;;2.58;;
29732;SDS011;16643;43.158;25.302;2023-07-20T12:49:57;4.78;;;2.55;;
29732;SDS011;16643;43.158;25.302;2023-07-20T12:52:22;2.85;;;2.10;;
29732;SDS011;16643;43.158;25.302;2023-07-20T12:54:48;6.93;;;2.30;;
29732;SDS011;16643;43.158;25.302;2023-07-20T12:57:13;4.30;;;2.20;;
29732;SDS011;16643;43.158;25.302;2023-07-20T12:59:39;6.43;;;2.40;;
29732;SDS011;16643;43.158;25.302;2023-07-20T13:02:05;4.38;;;2.28;;
29732;SDS011;16643;43.158;25.302;2023-07-20T13:04:31;4.40;;;2.40;;
29732;SDS011;16643;43.158;25.302;2023-07-20T13:06:58;5.50;;;2.40;;
29732;SDS011;16643;43.158;25.302;2023-07-20T13:09:24;5.07;;;2.40;;
29732;SDS011;16643;43.158;25.302;2023-07-20T13:11:50;4.75;;;2.45;;
29732;SDS011;16643;43.158;25.302;2023-07-20T13:14:17;3.83;;;2.35;;
29732;SDS011;16643;43.158;25.302;2023-07-20T13:16:43;5.88;;;2.55;;
29732;SDS011;16643;43.158;25.302;2023-07-20T13:19:09;4.85;;;2.40;;
29732;SDS011;16643;43.158;25.302;2023-07-20T13:21:34;5.70;;;2.22;;
29732;SDS011;16643;43.158;25.302;2023-07-20T13:24:00;6.53;;;2.53;;
29732;SDS011;16643;43.158;25.302;2023-07-20T13:26:26;3.53;;;2.47;;
29732;SDS011;16643;43.158;25.302;2023-07-20T13:28:52;3.03;;;2.17;;
29732;SDS011;16643;43.158;25.302;2023-07-20T13:31:18;5.47;;;2.60;;
29732;SDS011;16643;43.158;25.302;2023-07-20T13:33:43;6.13;;;2.60;;
29732;SDS011;16643;43.158;25.302;2023-07-20T13:36:09;3.85;;;2.13;;
29732;SDS011;16643;43.158;25.302;2023-07-20T13:38:35;4.10;;;2.22;;
29732;SDS011;16643;43.158;25.302;2023-07-20T13:41:00;6.72;;;3.15;;
29732;SDS011;16643;43.158;25.302;2023-07-20T13:43:26;4.72;;;2.40;;
29732;SDS011;16643;43.158;25.302;2023-07-20T13:45:51;4.82;;;2.58;;
29732;SDS011;16643;43.158;25.302;2023-07-20T13:48:17;8.20;;;2.42;;
29732;SDS011;16643;43.158;25.302;2023-07-20T13:53:11;6.00;;;3.08;;
29732;SDS011;16643;43.158;25.302;2023-07-20T13:55:36;4.05;;;2.58;;
29732;SDS011;16643;43.158;25.302;2023-07-20T13:58:03;7.38;;;2.88;;
29732;SDS011;16643;43.158;25.302;2023-07-20T14:00:29;4.85;;;2.95;;
29732;SDS011;16643;43.158;25.302;2023-07-20T14:02:58;7.15;;;3.33;;
29732;SDS011;16643;43.158;25.302;2023-07-20T14:05:24;4.40;;;3.10;;
29732;SDS011;16643;43.158;25.302;2023-07-20T14:07:50;5.45;;;2.70;;
29732;SDS011;16643;43.158;25.302;2023-07-20T14:10:16;4.32;;;2.45;;
29732;SDS011;16643;43.158;25.302;2023-07-20T14:12:43;5.13;;;2.78;;
29732;SDS011;16643;43.158;25.302;2023-07-20T14:15:09;4.55;;;2.72;;
29732;SDS011;16643;43.158;25.302;2023-07-20T14:17:35;4.63;;;2.80;;
29732;SDS011;16643;43.158;25.302;2023-07-20T14:20:01;5.03;;;2.40;;
29732;SDS011;16643;43.158;25.302;2023-07-20T14:22:30;4.55;;;2.30;;
29732;SDS011;16643;43.158;25.302;2023-07-20T14:24:56;7.40;;;2.50;;
29732;SDS011;16643;43.158;25.302;2023-07-20T14:27:21;6.57;;;2.70;;
29732;SDS011;16643;43.158;25.302;2023-07-20T14:29:47;5.82;;;2.65;;
29732;SDS011;16643;43.158;25.302;2023-07-20T14:32:13;6.38;;;3.00;;
29732;SDS011;16643;43.158;25.302;2023-07-20T14:34:39;6.72;;;2.53;;
29732;SDS011;16643;43.158;25.302;2023-07-20T14:37:06;5.80;;;2.33;;
29732;SDS011;16643;43.158;25.302;2023-07-20T14:39:32;4.17;;;2.30;;
29732;SDS011;16643;43.158;25.302;2023-07-20T14:41:57;5.63;;;2.60;;
29732;SDS011;16643;43.158;25.302;2023-07-20T14:44:23;8.38;;;2.60;;
29732;SDS011;16643;43.158;25.302;2023-07-20T14:46:49;4.10;;;2.53;;
29732;SDS011;16643;43.158;25.302;2023-07-20T14:49:15;6.53;;;2.67;;
29732;SDS011;16643;43.158;25.302;2023-07-20T14:51:41;3.77;;;2.70;;
29732;SDS011;16643;43.158;25.302;2023-07-20T14:54:11;7.40;;;3.28;;
29732;SDS011;16643;43.158;25.302;2023-07-20T14:56:37;4.82;;;2.58;;
29732;SDS011;16643;43.158;25.302;2023-07-20T14:59:04;5.47;;;2.60;;
29732;SDS011;16643;43.158;25.302;2023-07-20T15:01:31;7.75;;;2.80;;
29732;SDS011;16643;43.158;25.302;2023-07-20T15:03:57;5.00;;;2.30;;
29732;SDS011;16643;43.158;25.302;2023-07-20T15:08:50;6.00;;;2.90;;
29732;SDS011;16643;43.158;25.302;2023-07-20T15:11:15;6.72;;;2.50;;
29732;SDS011;16643;43.158;25.302;2023-07-20T15:13:47;7.00;;;2.42;;
29732;SDS011;16643;43.158;25.302;2023-07-20T15:16:12;4.95;;;2.25;;
29732;SDS011;16643;43.158;25.302;2023-07-20T15:18:38;8.95;;;3.30;;